sensor_id;sensor_type;location;lat;lon;timestamp;pressure;altitude;pressure_sealevel;temperature;humidity
75317;BME280;63913;51.492;10.368;2023-02-15T00:01:11;99839.63;;;1.12;81.43
75317;BME280;63913;51.492;10.368;2023-02-15T00:03:37;99848.31;;;1.16;82.49
75317;BME280;63913;51.492;10.368;2023-02-15T00:06:03;99845.78;;;1.16;81.93
75317;BME280;63913;51.492;10.368;2023-02-15T00:08:29;99839.50;;;1.11;82.46
75317;BME280;63913;51.492;10.368;2023-02-15T00:11:06;99831.34;;;1.15;81.86
75317;BME280;63913;51.492;10.368;2023-02-15T00:13:32;99840.88;;;1.07;82.02
75317;BME280;63913;51.492;10.368;2023-02-15T00:16:06;99829.22;;;1.09;81.81
75317;BME280;63913;51.492;10.368;2023-02-15T00:18:32;99839.09;;;1.06;82.20
75317;BME280;63913;51.492;10.368;2023-02-15T00:20:58;99837.84;;;1.11;81.75
75317;BME280;63913;51.492;10.368;2023-02-15T00:23:23;99830.38;;;1.13;81.23
75317;BME280;63913;51.492;10.368;2023-02-15T00:25:49;99840.00;;;1.07;81.40
75317;BME280;63913;51.492;10.368;2023-02-15T00:28:15;99834.41;;;1.11;81.59
75317;BME280;63913;51.492;10.368;2023-02-15T00:30:40;99830.81;;;0.87;80.93
75317;BME280;63913;51.492;10.368;2023-02-15T00:33:05;99831.69;;;0.77;81.50
75317;BME280;63913;51.492;10.368;2023-02-15T00:35:32;99827.13;;;0.73;81.92
75317;BME280;63913;51.492;10.368;2023-02-15T00:37:57;99825.47;;;0.74;81.68
75317;BME280;63913;51.492;10.368;2023-02-15T00:40:22;99822.72;;;0.81;81.26
75317;BME280;63913;51.492;10.368;2023-02-15T00:42:48;99834.50;;;0.70;81.51
75317;BME280;63913;51.492;10.368;2023-02-15T00:45:14;99827.28;;;0.65;81.64
75317;BME280;63913;51.492;10.368;2023-02-15T00:47:39;99824.22;;;0.69;81.44
75317;BME280;63913;51.492;10.368;2023-02-15T00:50:05;99820.06;;;0.69;81.41
75317;BME280;63913;51.492;10.368;2023-02-15T00:52:30;99817.53;;;0.69;81.33
75317;BME280;63913;51.492;10.368;2023-02-15T00:54:56;99815.00;;;0.69;81.61
75317;BME280;63913;51.492;10.368;2023-02-15T00:57:21;99812.47;;;0.69;81.34
75317;BME280;63913;51.492;10.368;2023-02-15T00:59:46;99811.84;;;0.72;81.27
75317;BME280;63913;51.492;10.368;2023-02-15T01:02:12;99804.59;;;0.76;81.23
75317;BME280;63913;51.492;10.368;2023-02-15T01:04:37;99800.31;;;0.75;80.99
75317;BME280;63913;51.492;10.368;2023-02-15T01:07:02;99795.00;;;0.72;81.46
75317;BME280;63913;51.492;10.368;2023-02-15T01:09:32;99791.59;;;0.72;81.32
75317;BME280;63913;51.492;10.368;2023-02-15T01:11:57;99784.75;;;0.71;81.33
75317;BME280;63913;51.492;10.368;2023-02-15T01:14:25;99788.94;;;0.50;81.50
75317;BME280;63913;51.492;10.368;2023-02-15T01:16:50;99785.53;;;0.50;82.00
75317;BME280;63913;51.492;10.368;2023-02-15T01:19:15;99783.63;;;0.57;82.08
75317;BME280;63913;51.492;10.368;2023-02-15T01:21:41;99779.97;;;0.54;82.32
75317;BME280;63913;51.492;10.368;2023-02-15T01:24:13;99769.44;;;0.59;82.01
75317;BME280;63913;51.492;10.368;2023-02-15T01:26:38;99765.53;;;0.63;82.10
75317;BME280;63913;51.492;10.368;2023-02-15T01:29:04;99768.69;;;0.60;82.34
75317;BME280;63913;51.492;10.368;2023-02-15T01:31:30;99758.84;;;0.63;82.68
75317;BME280;63913;51.492;10.368;2023-02-15T01:33:55;99759.31;;;0.69;82.03
75317;BME280;63913;51.492;10.368;2023-02-15T01:36:21;99756.19;;;0.62;82.10
75317;BME280;63913;51.492;10.368;2023-02-15T01:38:46;99752.34;;;0.67;81.57
75317;BME280;63913;51.492;10.368;2023-02-15T01:41:12;99754.88;;;0.67;81.35
75317;BME280;63913;51.492;10.368;2023-02-15T01:43:57;99750.09;;;0.60;81.44
75317;BME280;63913;51.492;10.368;2023-02-15T01:46:44;99740.09;;;0.61;81.59
75317;BME280;63913;51.492;10.368;2023-02-15T01:49:16;99741.47;;;0.68;81.74
75317;BME280;63913;51.492;10.368;2023-02-15T01:51:44;99742.38;;;0.68;81.36
75317;BME280;63913;51.492;10.368;2023-02-15T01:54:37;99748.94;;;0.66;81.49
75317;BME280;63913;51.492;10.368;2023-02-15T01:57:17;99730.63;;;0.59;81.08
75317;BME280;63913;51.492;10.368;2023-02-15T01:59:47;99742.38;;;0.58;81.89
75317;BME280;63913;51.492;10.368;2023-02-15T02:02:16;99741.13;;;0.53;81.80
75317;BME280;63913;51.492;10.368;2023-02-15T02:04:48;99738.88;;;0.56;81.46
75317;BME280;63913;51.492;10.368;2023-02-15T02:07:20;99734.16;;;0.51;81.58
75317;BME280;63913;51.492;10.368;2023-02-15T02:09:47;99741.13;;;0.53;81.69
75317;BME280;63913;51.492;10.368;2023-02-15T02:12:14;99735.06;;;0.51;81.66
75317;BME280;63913;51.492;10.368;2023-02-15T02:14:41;99738.47;;;0.52;81.43
75317;BME280;63913;51.492;10.368;2023-02-15T02:17:17;99734.03;;;0.49;81.23
75317;BME280;63913;51.492;10.368;2023-02-15T02:22:57;99743.03;;;0.56;81.52
75317;BME280;63913;51.492;10.368;2023-02-15T02:25:39;99737.34;;;0.48;81.29
75317;BME280;63913;51.492;10.368;2023-02-15T02:28:33;99732.41;;;0.50;81.27
75317;BME280;63913;51.492;10.368;2023-02-15T02:31:11;99732.44;;;0.29;81.44
75317;BME280;63913;51.492;10.368;2023-02-15T02:33:54;99738.38;;;0.30;81.60
75317;BME280;63913;51.492;10.368;2023-02-15T02:36:39;99734.84;;;0.28;81.69
75317;BME280;63913;51.492;10.368;2023-02-15T02:39:16;99738.50;;;0.31;82.04
75317;BME280;63913;51.492;10.368;2023-02-15T02:41:53;99731.69;;;0.30;82.19
75317;BME280;63913;51.492;10.368;2023-02-15T02:46:57;99733.06;;;0.37;82.04
75317;BME280;63913;51.492;10.368;2023-02-15T02:49:35;99735.22;;;0.22;81.30
75317;BME280;63913;51.492;10.368;2023-02-15T02:52:03;99728.88;;;0.27;81.44
75317;BME280;63913;51.492;10.368;2023-02-15T02:54:32;99726.75;;;0.22;81.88
75317;BME280;63913;51.492;10.368;2023-02-15T02:57:03;99715.50;;;0.28;81.91
75317;BME280;63913;51.492;10.368;2023-02-15T02:59:36;99709.06;;;0.22;82.06
75317;BME280;63913;51.492;10.368;2023-02-15T03:02:32;99710.31;;;0.27;81.26
75317;BME280;63913;51.492;10.368;2023-02-15T03:05:05;99707.28;;;0.21;81.27
75317;BME280;63913;51.492;10.368;2023-02-15T03:07:33;99704.38;;;0.16;81.44
75317;BME280;63913;51.492;10.368;2023-02-15T03:10:02;99700.31;;;0.18;81.65
75317;BME280;63913;51.492;10.368;2023-02-15T03:12:36;99704.13;;;0.23;81.91
75317;BME280;63913;51.492;10.368;2023-02-15T03:17:32;99693.38;;;0.16;81.58
75317;BME280;63913;51.492;10.368;2023-02-15T03:20:04;99700.72;;;0.03;82.11
75317;BME280;63913;51.492;10.368;2023-02-15T03:22:35;99691.50;;;0.13;82.00
75317;BME280;63913;51.492;10.368;2023-02-15T03:25:19;99691.63;;;0.15;82.07
75317;BME280;63913;51.492;10.368;2023-02-15T03:27:49;99686.91;;;0.19;81.70
75317;BME280;63913;51.492;10.368;2023-02-15T03:30:20;99673.53;;;0.20;81.48
75317;BME280;63913;51.492;10.368;2023-02-15T03:32:48;99666.06;;;0.22;81.44
75317;BME280;63913;51.492;10.368;2023-02-15T03:35:15;99676.69;;;0.18;82.08
75317;BME280;63913;51.492;10.368;2023-02-15T03:37:44;99676.69;;;0.18;81.84
75317;BME280;63913;51.492;10.368;2023-02-15T03:43:27;99656.34;;;0.06;81.40
75317;BME280;63913;51.492;10.368;2023-02-15T03:45:58;99655.59;;;0.07;82.10
75317;BME280;63913;51.492;10.368;2023-02-15T03:48:32;99653.56;;;0.03;81.26
75317;BME280;63913;51.492;10.368;2023-02-15T03:51:05;99660.13;;;0.01;80.85
75317;BME280;63913;51.492;10.368;2023-02-15T03:53:52;99662.31;;;-0.04;81.90
75317;BME280;63913;51.492;10.368;2023-02-15T03:56:19;99656.75;;;-0.10;81.68
75317;BME280;63913;51.492;10.368;2023-02-15T03:58:44;99661.28;;;-0.06;81.04
75317;BME280;63913;51.492;10.368;2023-02-15T04:01:38;99658.00;;;-0.05;81.64
75317;BME280;63913;51.492;10.368;2023-02-15T04:04:28;99665.09;;;-0.01;81.54
75317;BME280;63913;51.492;10.368;2023-02-15T04:06:56;99660.53;;;-0.05;81.21
75317;BME280;63913;51.492;10.368;2023-02-15T04:09:21;99662.31;;;-0.04;81.25
75317;BME280;63913;51.492;10.368;2023-02-15T04:12:05;99664.81;;;-0.04;81.41
75317;BME280;63913;51.492;10.368;2023-02-15T04:14:31;99664.81;;;-0.14;81.12
75317;BME280;63913;51.492;10.368;2023-02-15T04:17:15;99670.00;;;-0.22;80.91
75317;BME280;63913;51.492;10.368;2023-02-15T04:19:40;99668.34;;;-0.22;80.89
75317;BME280;63913;51.492;10.368;2023-02-15T04:22:24;99670.25;;;-0.29;81.05
75317;BME280;63913;51.492;10.368;2023-02-15T04:25:08;99667.34;;;-0.34;81.81
75317;BME280;63913;51.492;10.368;2023-02-15T04:27:41;99662.69;;;-0.29;82.11
75317;BME280;63913;51.492;10.368;2023-02-15T04:30:08;99670.88;;;-0.22;81.43
75317;BME280;63913;51.492;10.368;2023-02-15T04:32:34;99667.59;;;-0.31;81.46
75317;BME280;63913;51.492;10.368;2023-02-15T04:34:59;99661.16;;;-0.38;81.77
75317;BME280;63913;51.492;10.368;2023-02-15T04:37:25;99652.81;;;-0.36;82.06
75317;BME280;63913;51.492;10.368;2023-02-15T04:39:50;99657.63;;;-0.29;81.64
75317;BME280;63913;51.492;10.368;2023-02-15T04:42:16;99656.25;;;-0.36;81.25
75317;BME280;63913;51.492;10.368;2023-02-15T04:44:41;99650.03;;;-0.29;80.29
75317;BME280;63913;51.492;10.368;2023-02-15T04:47:07;99651.81;;;-0.39;80.53
75317;BME280;63913;51.492;10.368;2023-02-15T04:49:32;99649.03;;;-0.42;81.00
75317;BME280;63913;51.492;10.368;2023-02-15T04:51:57;99641.59;;;-0.50;81.75
75317;BME280;63913;51.492;10.368;2023-02-15T04:54:23;99648.03;;;-0.44;81.36
75317;BME280;63913;51.492;10.368;2023-02-15T04:56:48;99646.50;;;-0.52;80.91
75317;BME280;63913;51.492;10.368;2023-02-15T04:59:14;99642.81;;;-0.55;80.96
75317;BME280;63913;51.492;10.368;2023-02-15T05:01:39;99642.34;;;-0.51;81.57
75317;BME280;63913;51.492;10.368;2023-02-15T05:04:04;99639.19;;;-0.49;81.82
75317;BME280;63913;51.492;10.368;2023-02-15T05:06:30;99642.44;;;-0.40;81.04
75317;BME280;63913;51.492;10.368;2023-02-15T05:08:55;99640.19;;;-0.36;80.95
75317;BME280;63913;51.492;10.368;2023-02-15T05:11:20;99633.63;;;-0.45;80.89
75317;BME280;63913;51.492;10.368;2023-02-15T05:13:46;99635.00;;;-0.48;80.90
75317;BME280;63913;51.492;10.368;2023-02-15T05:16:11;99626.78;;;-0.56;81.29
75317;BME280;63913;51.492;10.368;2023-02-15T05:18:37;99623.38;;;-0.56;80.91
75317;BME280;63913;51.492;10.368;2023-02-15T05:21:02;99618.97;;;-0.59;80.91
75317;BME280;63913;51.492;10.368;2023-02-15T05:23:28;99618.47;;;-0.65;81.14
75317;BME280;63913;51.492;10.368;2023-02-15T05:25:53;99622.63;;;-0.65;81.46
75317;BME280;63913;51.492;10.368;2023-02-15T05:28:38;99625.66;;;-0.59;81.54
75317;BME280;63913;51.492;10.368;2023-02-15T05:31:10;99622.75;;;-0.54;81.40
75317;BME280;63913;51.492;10.368;2023-02-15T05:33:36;99620.34;;;-0.52;81.02
75317;BME280;63913;51.492;10.368;2023-02-15T05:36:02;99620.09;;;-0.55;80.55
75317;BME280;63913;51.492;10.368;2023-02-15T05:38:28;99625.91;;;-0.66;80.49
75317;BME280;63913;51.492;10.368;2023-02-15T05:40:54;99622.00;;;-0.73;80.20
75317;BME280;63913;51.492;10.368;2023-02-15T05:43:19;99626.53;;;-0.69;80.98
75317;BME280;63913;51.492;10.368;2023-02-15T05:45:54;99619.22;;;-0.66;80.89
75317;BME280;63913;51.492;10.368;2023-02-15T05:48:22;99618.06;;;-0.69;80.55
75317;BME280;63913;51.492;10.368;2023-02-15T05:51:07;99621.09;;;-0.63;81.03
75317;BME280;63913;51.492;10.368;2023-02-15T05:53:35;99606.97;;;-0.61;80.69
75317;BME280;63913;51.492;10.368;2023-02-15T05:56:02;99607.47;;;-0.65;80.79
75317;BME280;63913;51.492;10.368;2023-02-15T05:58:29;99606.84;;;-0.73;80.88
75317;BME280;63913;51.492;10.368;2023-02-15T06:00:55;99604.06;;;-0.66;80.91
75317;BME280;63913;51.492;10.368;2023-02-15T06:03:21;99610.63;;;-0.68;80.82
75317;BME280;63913;51.492;10.368;2023-02-15T06:05:47;99617.44;;;-0.77;81.43
75317;BME280;63913;51.492;10.368;2023-02-15T06:08:12;99615.78;;;-0.77;81.63
75317;BME280;63913;51.492;10.368;2023-02-15T06:10:38;99610.50;;;-0.69;81.20
75317;BME280;63913;51.492;10.368;2023-02-15T06:13:05;99614.41;;;-0.73;80.32
75317;BME280;63913;51.492;10.368;2023-02-15T06:15:30;99606.69;;;-0.85;80.98
75317;BME280;63913;51.492;10.368;2023-02-15T06:17:56;99604.41;;;-0.92;81.33
75317;BME280;63913;51.492;10.368;2023-02-15T06:20:21;99602.13;;;-0.89;81.65
75317;BME280;63913;51.492;10.368;2023-02-15T06:22:46;99603.41;;;-0.84;81.33
75317;BME280;63913;51.492;10.368;2023-02-15T06:25:12;99600.75;;;-0.85;82.13
75317;BME280;63913;51.492;10.368;2023-02-15T06:27:37;99610.47;;;-0.80;82.16
75317;BME280;63913;51.492;10.368;2023-02-15T06:30:06;99607.22;;;-0.68;81.58
75317;BME280;63913;51.492;10.368;2023-02-15T06:32:31;99605.16;;;-0.72;81.00
75317;BME280;63913;51.492;10.368;2023-02-15T06:34:57;99610.63;;;-0.68;81.10
75317;BME280;63913;51.492;10.368;2023-02-15T06:37:22;99616.03;;;-0.63;80.81
75317;BME280;63913;51.492;10.368;2023-02-15T06:39:47;99612.63;;;-0.64;80.97
75317;BME280;63913;51.492;10.368;2023-02-15T06:42:13;99611.38;;;-0.69;80.57
75317;BME280;63913;51.492;10.368;2023-02-15T06:44:38;99621.84;;;-0.85;80.57
75317;BME280;63913;51.492;10.368;2023-02-15T06:47:03;99630.16;;;-0.86;81.03
75317;BME280;63913;51.492;10.368;2023-02-15T06:49:29;99618.19;;;-0.78;80.50
75317;BME280;63913;51.492;10.368;2023-02-15T06:51:54;99632.19;;;-0.82;80.53
75317;BME280;63913;51.492;10.368;2023-02-15T06:54:19;99628.41;;;-0.77;80.86
75317;BME280;63913;51.492;10.368;2023-02-15T06:56:45;99635.97;;;-0.87;80.70
75317;BME280;63913;51.492;10.368;2023-02-15T06:59:10;99635.59;;;-0.91;81.15
75317;BME280;63913;51.492;10.368;2023-02-15T07:01:35;99633.94;;;-0.91;81.29
75317;BME280;63913;51.492;10.368;2023-02-15T07:04:02;99633.56;;;-0.85;81.08
75317;BME280;63913;51.492;10.368;2023-02-15T07:06:31;99625.38;;;-0.83;80.65
75317;BME280;63913;51.492;10.368;2023-02-15T07:08:57;99622.09;;;-0.82;81.69
75317;BME280;63913;51.492;10.368;2023-02-15T07:11:22;99624.63;;;-0.82;81.67
75317;BME280;63913;51.492;10.368;2023-02-15T07:14:06;99637.34;;;-0.80;81.22
75317;BME280;63913;51.492;10.368;2023-02-15T07:16:31;99632.53;;;-0.87;80.99
75317;BME280;63913;51.492;10.368;2023-02-15T07:18:56;99632.53;;;-0.87;81.30
75317;BME280;63913;51.492;10.368;2023-02-15T07:21:22;99629.13;;;-0.88;81.48
75317;BME280;63913;51.492;10.368;2023-02-15T07:23:47;99621.59;;;-0.78;81.10
75317;BME280;63913;51.492;10.368;2023-02-15T07:26:12;99621.09;;;-0.84;81.04
75317;BME280;63913;51.492;10.368;2023-02-15T07:28:38;99618.78;;;-0.81;81.22
75317;BME280;63913;51.492;10.368;2023-02-15T07:31:04;99623.84;;;-0.81;81.37
75317;BME280;63913;51.492;10.368;2023-02-15T07:33:31;99619.78;;;-0.89;81.49
75317;BME280;63913;51.492;10.368;2023-02-15T07:35:58;99605.19;;;-0.83;81.33
75317;BME280;63913;51.492;10.368;2023-02-15T07:38:25;99609.06;;;-0.86;81.46
75317;BME280;63913;51.492;10.368;2023-02-15T07:40:51;99608.31;;;-0.85;81.37
75317;BME280;63913;51.492;10.368;2023-02-15T07:43:17;99604.53;;;-0.80;81.01
75317;BME280;63913;51.492;10.368;2023-02-15T07:45:42;99607.81;;;-0.91;81.46
75317;BME280;63913;51.492;10.368;2023-02-15T07:48:08;99600.28;;;-0.81;81.97
75317;BME280;63913;51.492;10.368;2023-02-15T07:50:34;99593.69;;;-0.79;81.64
75317;BME280;63913;51.492;10.368;2023-02-15T07:53:02;99594.84;;;-0.75;81.77
75317;BME280;63913;51.492;10.368;2023-02-15T07:55:27;99589.41;;;-0.70;81.22
75317;BME280;63913;51.492;10.368;2023-02-15T07:57:52;99584.22;;;-0.71;81.58
75317;BME280;63913;51.492;10.368;2023-02-15T08:00:20;99591.44;;;-0.66;81.46
75317;BME280;63913;51.492;10.368;2023-02-15T08:02:58;99588.03;;;-0.77;82.23
75317;BME280;63913;51.492;10.368;2023-02-15T08:05:39;99585.97;;;-0.81;82.19
75317;BME280;63913;51.492;10.368;2023-02-15T08:08:06;99590.91;;;-0.72;82.32
75317;BME280;63913;51.492;10.368;2023-02-15T08:10:32;99593.56;;;-0.70;82.04
75317;BME280;63913;51.492;10.368;2023-02-15T08:13:15;99588.16;;;-0.65;81.87
75317;BME280;63913;51.492;10.368;2023-02-15T08:15:48;99584.84;;;-0.64;82.33
75317;BME280;63913;51.492;10.368;2023-02-15T08:18:14;99581.84;;;-0.60;82.12
75317;BME280;63913;51.492;10.368;2023-02-15T08:20:39;99583.50;;;-0.60;82.31
75317;BME280;63913;51.492;10.368;2023-02-15T08:23:04;99568.69;;;-0.56;82.36
75317;BME280;63913;51.492;10.368;2023-02-15T08:25:29;99569.72;;;-0.54;82.64
75317;BME280;63913;51.492;10.368;2023-02-15T08:27:55;99577.91;;;-0.46;83.07
75317;BME280;63913;51.492;10.368;2023-02-15T08:30:20;99573.88;;;-0.44;82.62
75317;BME280;63913;51.492;10.368;2023-02-15T08:32:46;99567.19;;;-0.44;82.32
75317;BME280;63913;51.492;10.368;2023-02-15T08:35:11;99570.22;;;-0.48;82.95
75317;BME280;63913;51.492;10.368;2023-02-15T08:37:36;99564.41;;;-0.47;82.65
75317;BME280;63913;51.492;10.368;2023-02-15T08:40:02;99564.94;;;-0.41;82.94
75317;BME280;63913;51.492;10.368;2023-02-15T08:42:27;99565.44;;;-0.34;83.36
75317;BME280;63913;51.492;10.368;2023-02-15T08:44:53;99570.97;;;-0.28;83.44
75317;BME280;63913;51.492;10.368;2023-02-15T08:47:18;99564.91;;;-0.20;83.32
75317;BME280;63913;51.492;10.368;2023-02-15T08:49:43;99559.69;;;-0.12;83.34
75317;BME280;63913;51.492;10.368;2023-02-15T08:52:09;99563.59;;;-0.05;83.59
75317;BME280;63913;51.492;10.368;2023-02-15T08:54:34;99564.22;;;0.03;83.85
75317;BME280;63913;51.492;10.368;2023-02-15T08:56:59;99558.78;;;0.08;84.15
75317;BME280;63913;51.492;10.368;2023-02-15T08:59:25;99557.84;;;0.18;83.96
75317;BME280;63913;51.492;10.368;2023-02-15T09:01:52;99556.03;;;0.27;83.96
75317;BME280;63913;51.492;10.368;2023-02-15T09:04:18;99560.81;;;0.34;83.96
75317;BME280;63913;51.492;10.368;2023-02-15T09:06:45;99563.31;;;0.44;84.12
75317;BME280;63913;51.492;10.368;2023-02-15T09:09:11;99556.31;;;0.52;84.00
75317;BME280;63913;51.492;10.368;2023-02-15T09:11:39;99557.81;;;0.60;83.97
75317;BME280;63913;51.492;10.368;2023-02-15T09:14:07;99551.81;;;0.69;83.73
75317;BME280;63913;51.492;10.368;2023-02-15T09:16:36;99547.88;;;0.73;83.59
75317;BME280;63913;51.492;10.368;2023-02-15T09:19:02;99542.63;;;0.82;83.60
75317;BME280;63913;51.492;10.368;2023-02-15T09:21:30;99546.22;;;0.95;84.04
75317;BME280;63913;51.492;10.368;2023-02-15T09:23:59;99552.22;;;1.07;83.65
75317;BME280;63913;51.492;10.368;2023-02-15T09:26:25;99554.16;;;1.22;84.46
75317;BME280;63913;51.492;10.368;2023-02-15T09:28:53;99551.53;;;1.32;84.08
75317;BME280;63913;51.492;10.368;2023-02-15T09:31:23;99554.22;;;1.45;83.54
75317;BME280;63913;51.492;10.368;2023-02-15T09:33:48;99560.63;;;1.51;83.53
75317;BME280;63913;51.492;10.368;2023-02-15T09:38:47;99561.31;;;1.61;83.66
75317;BME280;63913;51.492;10.368;2023-02-15T09:46:29;99550.97;;;1.81;83.45
75317;BME280;63913;51.492;10.368;2023-02-15T09:49:09;99548.22;;;1.89;83.12
75317;BME280;63913;51.492;10.368;2023-02-15T09:51:54;99538.09;;;2.01;82.92
75317;BME280;63913;51.492;10.368;2023-02-15T09:54:51;99547.25;;;2.11;82.77
75317;BME280;63913;51.492;10.368;2023-02-15T09:57:29;99551.22;;;2.19;82.15
75317;BME280;63913;51.492;10.368;2023-02-15T10:00:20;99544.81;;;2.24;81.94
75317;BME280;63913;51.492;10.368;2023-02-15T10:03:24;99544.13;;;2.38;81.29
75317;BME280;63913;51.492;10.368;2023-02-15T10:08:56;99532.09;;;2.47;81.01
75317;BME280;63913;51.492;10.368;2023-02-15T10:11:40;99538.34;;;2.52;80.15
75317;BME280;63913;51.492;10.368;2023-02-15T10:14:45;99529.19;;;2.66;80.07
75317;BME280;63913;51.492;10.368;2023-02-15T10:28:42;99504.25;;;3.35;79.22
75317;BME280;63913;51.492;10.368;2023-02-15T10:31:27;99507.03;;;3.51;78.58
75317;BME280;63913;51.492;10.368;2023-02-15T10:34:16;99504.59;;;3.66;77.85
75317;BME280;63913;51.492;10.368;2023-02-15T10:39:32;99497.28;;;3.83;76.89
75317;BME280;63913;51.492;10.368;2023-02-15T10:52:42;99475.84;;;4.19;76.57
75317;BME280;63913;51.492;10.368;2023-02-15T11:00:45;99470.22;;;4.51;76.14
75317;BME280;63913;51.492;10.368;2023-02-15T11:03:29;99469.69;;;4.57;75.72
75317;BME280;63913;51.492;10.368;2023-02-15T11:06:11;99464.91;;;4.62;75.91
75317;BME280;63913;51.492;10.368;2023-02-15T11:08:45;99459.47;;;4.70;75.68
75317;BME280;63913;51.492;10.368;2023-02-15T11:11:41;99460.22;;;4.82;75.00
75317;BME280;63913;51.492;10.368;2023-02-15T11:14:15;99458.56;;;4.97;74.64
75317;BME280;63913;51.492;10.368;2023-02-15T11:16:45;99465.78;;;5.05;73.42
75317;BME280;63913;51.492;10.368;2023-02-15T11:19:20;99467.13;;;5.13;72.85
75317;BME280;63913;51.492;10.368;2023-02-15T11:21:49;99462.56;;;5.22;71.92
75317;BME280;63913;51.492;10.368;2023-02-15T11:24:17;99459.31;;;5.24;71.53
75317;BME280;63913;51.492;10.368;2023-02-15T11:26:50;99463.97;;;5.31;71.69
75317;BME280;63913;51.492;10.368;2023-02-15T11:29:29;99461.88;;;5.39;70.21
75317;BME280;63913;51.492;10.368;2023-02-15T11:31:59;99462.31;;;5.47;69.95
75317;BME280;63913;51.492;10.368;2023-02-15T11:34:49;99462.50;;;5.50;70.13
75317;BME280;63913;51.492;10.368;2023-02-15T11:37:20;99459.94;;;5.64;70.17
75317;BME280;63913;51.492;10.368;2023-02-15T11:39:50;99467.16;;;5.71;70.65
75317;BME280;63913;51.492;10.368;2023-02-15T11:42:20;99455.69;;;5.80;70.71
75317;BME280;63913;51.492;10.368;2023-02-15T11:44:59;99447.44;;;5.84;70.39
75317;BME280;63913;51.492;10.368;2023-02-15T11:47:29;99448.47;;;5.87;69.32
75317;BME280;63913;51.492;10.368;2023-02-15T11:49:54;99455.78;;;5.96;69.84
75317;BME280;63913;51.492;10.368;2023-02-15T11:52:20;99456.91;;;6.01;69.36
75317;BME280;63913;51.492;10.368;2023-02-15T11:54:49;99446.88;;;6.04;68.73
75317;BME280;63913;51.492;10.368;2023-02-15T11:57:39;99446.69;;;6.16;68.53
75317;BME280;63913;51.492;10.368;2023-02-15T12:00:40;99441.59;;;6.16;67.85
75317;BME280;63913;51.492;10.368;2023-02-15T12:03:14;99435.13;;;6.22;68.12
75317;BME280;63913;51.492;10.368;2023-02-15T12:05:44;99432.91;;;6.28;67.66
75317;BME280;63913;51.492;10.368;2023-02-15T12:08:20;99434.56;;;6.28;68.02
75317;BME280;63913;51.492;10.368;2023-02-15T12:10:56;99436.44;;;6.30;67.79
75317;BME280;63913;51.492;10.368;2023-02-15T12:13:23;99425.03;;;6.40;67.02
75317;BME280;63913;51.492;10.368;2023-02-15T12:15:53;99424.28;;;6.42;67.20
75317;BME280;63913;51.492;10.368;2023-02-15T12:18:39;99434.91;;;6.50;67.04
75317;BME280;63913;51.492;10.368;2023-02-15T12:23:34;99431.88;;;6.57;66.52
75317;BME280;63913;51.492;10.368;2023-02-15T12:26:05;99425.28;;;6.61;66.08
75317;BME280;63913;51.492;10.368;2023-02-15T12:28:36;99426.25;;;6.63;65.82
75317;BME280;63913;51.492;10.368;2023-02-15T12:31:09;99423.03;;;6.67;65.86
75317;BME280;63913;51.492;10.368;2023-02-15T12:33:39;99415.94;;;6.77;66.27
75317;BME280;63913;51.492;10.368;2023-02-15T12:36:12;99425.84;;;6.87;66.01
75317;BME280;63913;51.492;10.368;2023-02-15T12:38:40;99412.31;;;6.90;66.04
75317;BME280;63913;51.492;10.368;2023-02-15T12:43:43;99419.97;;;7.06;65.20
75317;BME280;63913;51.492;10.368;2023-02-15T12:46:26;99407.97;;;7.21;64.87
75317;BME280;63913;51.492;10.368;2023-02-15T12:49:07;99401.47;;;7.28;62.96
75317;BME280;63913;51.492;10.368;2023-02-15T12:51:51;99400.56;;;7.44;64.01
75317;BME280;63913;51.492;10.368;2023-02-15T12:54:40;99410.66;;;7.58;63.69
75317;BME280;63913;51.492;10.368;2023-02-15T12:57:26;99401.66;;;7.66;60.56
75317;BME280;63913;51.492;10.368;2023-02-15T13:00:00;99407.50;;;7.82;59.89
75317;BME280;63913;51.492;10.368;2023-02-15T13:02:36;99400.47;;;7.95;59.58
75317;BME280;63913;51.492;10.368;2023-02-15T13:07:55;99401.31;;;8.14;58.70
75317;BME280;63913;51.492;10.368;2023-02-15T13:10:31;99398.31;;;8.22;58.12
75317;BME280;63913;51.492;10.368;2023-02-15T13:12:59;99392.47;;;8.25;58.19
75317;BME280;63913;51.492;10.368;2023-02-15T13:15:37;99405.47;;;8.29;58.26
75317;BME280;63913;51.492;10.368;2023-02-15T13:18:05;99399.66;;;8.32;57.96
75317;BME280;63913;51.492;10.368;2023-02-15T13:20:36;99395.09;;;8.26;58.46
75317;BME280;63913;51.492;10.368;2023-02-15T13:23:06;99394.72;;;8.36;59.22
75317;BME280;63913;51.492;10.368;2023-02-15T13:25:45;99390.81;;;8.45;58.42
75317;BME280;63913;51.492;10.368;2023-02-15T13:28:16;99389.06;;;8.43;59.06
75317;BME280;63913;51.492;10.368;2023-02-15T13:30:46;99381.53;;;8.47;58.52
75317;BME280;63913;51.492;10.368;2023-02-15T13:42:00;99365.28;;;8.65;58.49
75317;BME280;63913;51.492;10.368;2023-02-15T13:47:43;99355.22;;;8.70;58.56
75317;BME280;63913;51.492;10.368;2023-02-15T14:04:25;99363.13;;;8.95;56.79
75317;BME280;63913;51.492;10.368;2023-02-15T14:13:11;99351.75;;;9.09;55.08
75317;BME280;63913;51.492;10.368;2023-02-15T14:31:43;99336.31;;;9.29;55.90
75317;BME280;63913;51.492;10.368;2023-02-15T14:34:21;99344.03;;;9.29;54.69
75317;BME280;63913;51.492;10.368;2023-02-15T14:36:50;99338.31;;;9.36;54.99
75317;BME280;63913;51.492;10.368;2023-02-15T14:39:31;99331.66;;;9.41;54.36
75317;BME280;63913;51.492;10.368;2023-02-15T14:42:49;99335.97;;;9.40;54.67
75317;BME280;63913;51.492;10.368;2023-02-15T14:45:28;99335.88;;;9.39;54.61
75317;BME280;63913;51.492;10.368;2023-02-15T14:48:07;99338.81;;;9.48;54.62
75317;BME280;63913;51.492;10.368;2023-02-15T14:50:43;99329.03;;;9.60;55.28
75317;BME280;63913;51.492;10.368;2023-02-15T14:56:13;99325.00;;;9.67;54.54
75317;BME280;63913;51.492;10.368;2023-02-15T15:01:31;99326.06;;;9.72;54.31
75317;BME280;63913;51.492;10.368;2023-02-15T15:04:05;99322.56;;;9.70;54.70
75317;BME280;63913;51.492;10.368;2023-02-15T15:06:36;99326.31;;;9.78;55.27
75317;BME280;63913;51.492;10.368;2023-02-15T15:09:25;99329.00;;;9.81;55.49